sensor_id;sensor_type;location;lat;lon;timestamp;pressure;altitude;pressure_sealevel;temperature;humidity
34370;BME280;20635;55.812;37.560;2023-02-03T00:00:35;98631.19;;;22.33;26.78
34370;BME280;20635;55.812;37.560;2023-02-03T00:03:01;98629.56;;;22.32;26.85
34370;BME280;20635;55.812;37.560;2023-02-03T00:05:28;98633.16;;;22.32;26.96
34370;BME280;20635;55.812;37.560;2023-02-03T00:07:54;98621.19;;;22.32;27.10
34370;BME280;20635;55.812;37.560;2023-02-03T00:10:20;98630.38;;;22.32;27.34
34370;BME280;20635;55.812;37.560;2023-02-03T00:12:48;98630.03;;;22.34;27.11
34370;BME280;20635;55.812;37.560;2023-02-03T00:15:15;98628.06;;;22.34;27.25
34370;BME280;20635;55.812;37.560;2023-02-03T00:17:41;98626.22;;;22.38;27.29
34370;BME280;20635;55.812;37.560;2023-02-03T00:20:07;98625.91;;;22.40;27.47
34370;BME280;20635;55.812;37.560;2023-02-03T00:22:33;98618.00;;;22.42;27.40
34370;BME280;20635;55.812;37.560;2023-02-03T00:24:59;98628.16;;;22.46;27.28
34370;BME280;20635;55.812;37.560;2023-02-03T00:27:25;98628.28;;;22.50;27.46
34370;BME280;20635;55.812;37.560;2023-02-03T00:29:51;98627.13;;;22.51;27.35
34370;BME280;20635;55.812;37.560;2023-02-03T00:32:17;98628.44;;;22.53;27.41
34370;BME280;20635;55.812;37.560;2023-02-03T00:34:43;98630.53;;;22.57;27.43
34370;BME280;20635;55.812;37.560;2023-02-03T00:37:11;98632.66;;;22.60;27.22
34370;BME280;20635;55.812;37.560;2023-02-03T00:39:37;98627.22;;;22.63;27.28
34370;BME280;20635;55.812;37.560;2023-02-03T00:42:04;98636.06;;;22.65;27.18
34370;BME280;20635;55.812;37.560;2023-02-03T00:44:31;98638.19;;;22.68;27.57
34370;BME280;20635;55.812;37.560;2023-02-03T00:46:57;98631.94;;;22.71;27.45
34370;BME280;20635;55.812;37.560;2023-02-03T00:49:23;98634.38;;;22.73;27.30
34370;BME280;20635;55.812;37.560;2023-02-03T00:51:49;98636.50;;;22.76;27.52
34370;BME280;20635;55.812;37.560;2023-02-03T00:54:15;98627.78;;;22.77;27.52
34370;BME280;20635;55.812;37.560;2023-02-03T00:56:41;98639.09;;;22.81;27.38
34370;BME280;20635;55.812;37.560;2023-02-03T00:59:07;98628.88;;;22.85;27.07
34370;BME280;20635;55.812;37.560;2023-02-03T01:01:34;98627.22;;;22.84;27.26
34370;BME280;20635;55.812;37.560;2023-02-03T01:04:00;98634.56;;;22.89;27.37
34370;BME280;20635;55.812;37.560;2023-02-03T01:06:26;98627.19;;;22.93;27.15
34370;BME280;20635;55.812;37.560;2023-02-03T01:08:52;98624.88;;;22.95;27.29
34370;BME280;20635;55.812;37.560;2023-02-03T01:11:21;98628.94;;;22.97;27.21
34370;BME280;20635;55.812;37.560;2023-02-03T01:13:48;98617.09;;;23.00;27.01
34370;BME280;20635;55.812;37.560;2023-02-03T01:16:17;98624.00;;;23.03;27.35
34370;BME280;20635;55.812;37.560;2023-02-03T01:18:45;98626.06;;;23.06;27.33
34370;BME280;20635;55.812;37.560;2023-02-03T01:21:17;98621.78;;;23.09;27.18
34370;BME280;20635;55.812;37.560;2023-02-03T01:23:43;98622.25;;;23.11;27.11
34370;BME280;20635;55.812;37.560;2023-02-03T01:26:12;98620.78;;;23.13;27.23
34370;BME280;20635;55.812;37.560;2023-02-03T01:28:38;98620.41;;;23.15;27.07
34370;BME280;20635;55.812;37.560;2023-02-03T01:31:12;98617.75;;;23.18;27.35
34370;BME280;20635;55.812;37.560;2023-02-03T01:33:39;98623.00;;;23.20;27.46
34370;BME280;20635;55.812;37.560;2023-02-03T01:36:07;98619.53;;;23.23;27.08
34370;BME280;20635;55.812;37.560;2023-02-03T01:38:34;98622.78;;;23.25;27.27
34370;BME280;20635;55.812;37.560;2023-02-03T01:41:00;98610.47;;;23.26;27.32
34370;BME280;20635;55.812;37.560;2023-02-03T01:43:31;98617.00;;;23.30;26.95
34370;BME280;20635;55.812;37.560;2023-02-03T01:46:02;98615.00;;;23.31;27.58
34370;BME280;20635;55.812;37.560;2023-02-03T01:48:33;98614.31;;;23.34;27.65
34370;BME280;20635;55.812;37.560;2023-02-03T01:51:01;98617.59;;;23.36;27.20
34370;BME280;20635;55.812;37.560;2023-02-03T01:53:29;98618.06;;;23.38;27.30
34370;BME280;20635;55.812;37.560;2023-02-03T01:55:56;98619.34;;;23.40;27.56
34370;BME280;20635;55.812;37.560;2023-02-03T01:58:27;98609.44;;;23.43;27.45
34370;BME280;20635;55.812;37.560;2023-02-03T02:00:55;98612.25;;;23.43;27.82
34370;BME280;20635;55.812;37.560;2023-02-03T02:03:28;98610.75;;;23.45;28.08
34370;BME280;20635;55.812;37.560;2023-02-03T02:06:08;98609.22;;;23.48;27.92
34370;BME280;20635;55.812;37.560;2023-02-03T02:08:36;98607.94;;;23.45;27.90
34370;BME280;20635;55.812;37.560;2023-02-03T02:11:03;98609.13;;;23.44;27.87
34370;BME280;20635;55.812;37.560;2023-02-03T02:13:31;98604.66;;;23.43;27.87
34370;BME280;20635;55.812;37.560;2023-02-03T02:16:14;98602.81;;;23.47;27.67
34370;BME280;20635;55.812;37.560;2023-02-03T02:21:43;98608.75;;;23.46;27.78
34370;BME280;20635;55.812;37.560;2023-02-03T02:35:55;98599.28;;;23.38;28.06
34370;BME280;20635;55.812;37.560;2023-02-03T02:38:45;98594.88;;;23.37;27.69
34370;BME280;20635;55.812;37.560;2023-02-03T02:41:33;98600.00;;;23.35;27.98
34370;BME280;20635;55.812;37.560;2023-02-03T02:44:16;98597.22;;;23.35;28.03
34370;BME280;20635;55.812;37.560;2023-02-03T02:46:52;98607.44;;;23.31;27.68
34370;BME280;20635;55.812;37.560;2023-02-03T02:51:45;98595.78;;;23.29;27.58
34370;BME280;20635;55.812;37.560;2023-02-03T02:54:20;98594.50;;;23.26;28.01
34370;BME280;20635;55.812;37.560;2023-02-03T02:56:51;98593.69;;;23.26;27.59
34370;BME280;20635;55.812;37.560;2023-02-03T02:59:18;98593.19;;;23.24;27.64
34370;BME280;20635;55.812;37.560;2023-02-03T03:01:45;98595.19;;;23.23;27.75
34370;BME280;20635;55.812;37.560;2023-02-03T03:04:12;98597.16;;;23.23;27.81
34370;BME280;20635;55.812;37.560;2023-02-03T03:06:45;98599.47;;;23.21;27.84
34370;BME280;20635;55.812;37.560;2023-02-03T03:12:07;98597.97;;;23.23;27.65
34370;BME280;20635;55.812;37.560;2023-02-03T03:14:36;98600.63;;;23.20;27.67
34370;BME280;20635;55.812;37.560;2023-02-03T03:17:06;98598.19;;;23.18;27.80
34370;BME280;20635;55.812;37.560;2023-02-03T03:19:39;98589.31;;;23.16;27.94
34370;BME280;20635;55.812;37.560;2023-02-03T03:22:10;98598.53;;;23.17;27.91
34370;BME280;20635;55.812;37.560;2023-02-03T03:24:47;98602.16;;;23.17;27.99
34370;BME280;20635;55.812;37.560;2023-02-03T03:27:22;98598.53;;;23.17;28.08
34370;BME280;20635;55.812;37.560;2023-02-03T03:29:53;98600.50;;;23.16;28.11
34370;BME280;20635;55.812;37.560;2023-02-03T03:32:19;98605.63;;;23.14;28.14
34370;BME280;20635;55.812;37.560;2023-02-03T03:34:46;98604.81;;;23.14;28.01
34370;BME280;20635;55.812;37.560;2023-02-03T03:37:19;98600.84;;;23.15;28.51
34370;BME280;20635;55.812;37.560;2023-02-03T03:39:55;98605.63;;;23.14;28.10
34370;BME280;20635;55.812;37.560;2023-02-03T03:47:49;98603.66;;;23.15;28.21
34370;BME280;20635;55.812;37.560;2023-02-03T03:50:24;98598.72;;;23.12;28.31
34370;BME280;20635;55.812;37.560;2023-02-03T03:52:52;98583.84;;;23.08;28.08
34370;BME280;20635;55.812;37.560;2023-02-03T03:55:20;98595.84;;;23.08;28.32
34370;BME280;20635;55.812;37.560;2023-02-03T04:00:23;98595.47;;;23.10;28.76
34370;BME280;20635;55.812;37.560;2023-02-03T04:02:53;98600.59;;;23.08;28.86
34370;BME280;20635;55.812;37.560;2023-02-03T04:05:21;98601.75;;;23.07;28.40
34370;BME280;20635;55.812;37.560;2023-02-03T04:07:47;98598.94;;;23.07;28.82
34370;BME280;20635;55.812;37.560;2023-02-03T04:10:25;98602.69;;;23.11;28.77
34370;BME280;20635;55.812;37.560;2023-02-03T04:12:54;98598.63;;;23.08;28.94
34370;BME280;20635;55.812;37.560;2023-02-03T04:15:20;98606.19;;;23.08;28.97
34370;BME280;20635;55.812;37.560;2023-02-03T04:17:46;98594.19;;;23.07;29.16
34370;BME280;20635;55.812;37.560;2023-02-03T04:20:12;98596.66;;;23.09;29.35
34370;BME280;20635;55.812;37.560;2023-02-03T04:22:39;98597.81;;;23.08;29.20
34370;BME280;20635;55.812;37.560;2023-02-03T04:25:05;98600.59;;;23.08;28.97
34370;BME280;20635;55.812;37.560;2023-02-03T04:27:31;98594.19;;;23.07;28.88
34370;BME280;20635;55.812;37.560;2023-02-03T04:29:57;98597.81;;;23.08;29.10
34370;BME280;20635;55.812;37.560;2023-02-03T04:32:23;98600.13;;;23.06;29.03
34370;BME280;20635;55.812;37.560;2023-02-03T04:34:49;98598.94;;;23.07;29.00
34370;BME280;20635;55.812;37.560;2023-02-03T04:37:14;98598.50;;;23.04;28.83
34370;BME280;20635;55.812;37.560;2023-02-03T04:39:40;98598.13;;;23.06;28.86
34370;BME280;20635;55.812;37.560;2023-02-03T04:42:07;98605.72;;;23.06;28.77
34370;BME280;20635;55.812;37.560;2023-02-03T04:44:32;98604.06;;;23.04;28.94
34370;BME280;20635;55.812;37.560;2023-02-03T04:46:58;98602.09;;;23.05;28.89
34370;BME280;20635;55.812;37.560;2023-02-03T04:49:24;98608.03;;;23.03;28.67
34370;BME280;20635;55.812;37.560;2023-02-03T04:51:50;98601.63;;;23.03;29.00
34370;BME280;20635;55.812;37.560;2023-02-03T04:54:16;98606.06;;;23.04;28.81
34370;BME280;20635;55.812;37.560;2023-02-03T04:56:42;98608.03;;;23.03;28.70
34370;BME280;20635;55.812;37.560;2023-02-03T04:59:08;98595.69;;;23.04;28.63
34370;BME280;20635;55.812;37.560;2023-02-03T05:01:34;98603.25;;;23.04;28.61
34370;BME280;20635;55.812;37.560;2023-02-03T05:04:00;98603.59;;;23.02;28.56
34370;BME280;20635;55.812;37.560;2023-02-03T05:06:27;98607.22;;;23.03;28.74
34370;BME280;20635;55.812;37.560;2023-02-03T05:08:53;98609.19;;;23.02;28.84
34370;BME280;20635;55.812;37.560;2023-02-03T05:11:20;98618.88;;;23.05;28.79
34370;BME280;20635;55.812;37.560;2023-02-03T05:13:46;98607.22;;;23.03;28.75
34370;BME280;20635;55.812;37.560;2023-02-03T05:16:13;98606.38;;;23.02;28.87
34370;BME280;20635;55.812;37.560;2023-02-03T05:18:39;98610.03;;;23.03;28.54
34370;BME280;20635;55.812;37.560;2023-02-03T05:21:05;98603.94;;;23.01;28.64
34370;BME280;20635;55.812;37.560;2023-02-03T05:23:31;98613.13;;;23.01;28.62
34370;BME280;20635;55.812;37.560;2023-02-03T05:25:57;98601.97;;;23.01;28.95
34370;BME280;20635;55.812;37.560;2023-02-03T05:28:23;98606.72;;;23.01;28.87
34370;BME280;20635;55.812;37.560;2023-02-03T05:30:49;98608.34;;;23.02;28.85
34370;BME280;20635;55.812;37.560;2023-02-03T05:33:15;98599.97;;;23.02;28.81
34370;BME280;20635;55.812;37.560;2023-02-03T05:35:41;98607.53;;;23.01;28.88
34370;BME280;20635;55.812;37.560;2023-02-03T05:38:07;98609.53;;;23.01;28.82
34370;BME280;20635;55.812;37.560;2023-02-03T05:40:33;98605.09;;;23.00;29.06
34370;BME280;20635;55.812;37.560;2023-02-03T05:43:18;98606.72;;;23.01;29.05
34370;BME280;20635;55.812;37.560;2023-02-03T05:45:44;98617.09;;;23.00;28.74
34370;BME280;20635;55.812;37.560;2023-02-03T05:48:10;98610.34;;;23.01;28.99
34370;BME280;20635;55.812;37.560;2023-02-03T05:50:36;98614.66;;;22.99;29.13
34370;BME280;20635;55.812;37.560;2023-02-03T05:53:07;98612.91;;;23.07;28.83
34370;BME280;20635;55.812;37.560;2023-02-03T05:55:34;98613.94;;;23.02;29.15
34370;BME280;20635;55.812;37.560;2023-02-03T05:58:00;98615.13;;;23.01;29.03
34370;BME280;20635;55.812;37.560;2023-02-03T06:00:27;98615.47;;;22.99;28.74
34370;BME280;20635;55.812;37.560;2023-02-03T06:02:58;98617.44;;;22.99;28.85
34370;BME280;20635;55.812;37.560;2023-02-03T06:05:25;98615.78;;;22.98;29.07
34370;BME280;20635;55.812;37.560;2023-02-03T06:07:51;98615.47;;;22.99;28.97
34370;BME280;20635;55.812;37.560;2023-02-03T06:10:17;98622.22;;;22.98;28.70
34370;BME280;20635;55.812;37.560;2023-02-03T06:12:43;98625.81;;;22.99;28.91
34370;BME280;20635;55.812;37.560;2023-02-03T06:15:10;98620.56;;;22.97;28.84
34370;BME280;20635;55.812;37.560;2023-02-03T06:17:36;98624.53;;;22.96;28.56
34370;BME280;20635;55.812;37.560;2023-02-03T06:20:06;98623.03;;;22.99;28.88
34370;BME280;20635;55.812;37.560;2023-02-03T06:22:33;98625.34;;;22.97;28.75
34370;BME280;20635;55.812;37.560;2023-02-03T06:25:00;98622.91;;;22.95;28.72
34370;BME280;20635;55.812;37.560;2023-02-03T06:27:26;98627.31;;;22.96;28.56
34370;BME280;20635;55.812;37.560;2023-02-03T06:29:53;98623.72;;;22.96;28.44
34370;BME280;20635;55.812;37.560;2023-02-03T06:32:19;98627.31;;;22.96;28.80
34370;BME280;20635;55.812;37.560;2023-02-03T06:34:45;98627.31;;;22.96;28.78
34370;BME280;20635;55.812;37.560;2023-02-03T06:37:11;98629.28;;;22.96;28.53
34370;BME280;20635;55.812;37.560;2023-02-03T06:39:37;98628.47;;;22.95;29.10
34370;BME280;20635;55.812;37.560;2023-02-03T06:42:03;98624.06;;;22.94;28.92
34370;BME280;20635;55.812;37.560;2023-02-03T06:44:29;98631.63;;;22.94;28.76
34370;BME280;20635;55.812;37.560;2023-02-03T06:46:54;98628.84;;;22.94;28.73
34370;BME280;20635;55.812;37.560;2023-02-03T06:49:20;98628.84;;;22.94;28.97
34370;BME280;20635;55.812;37.560;2023-02-03T06:51:46;98624.38;;;22.93;28.58
34370;BME280;20635;55.812;37.560;2023-02-03T06:54:12;98628.00;;;22.93;28.71
34370;BME280;20635;55.812;37.560;2023-02-03T06:56:39;98628.00;;;22.93;28.68
34370;BME280;20635;55.812;37.560;2023-02-03T06:59:05;98623.25;;;22.94;28.71
34370;BME280;20635;55.812;37.560;2023-02-03T07:01:31;98611.22;;;22.93;28.53
34370;BME280;20635;55.812;37.560;2023-02-03T07:03:57;98618.78;;;22.93;28.89
34370;BME280;20635;55.812;37.560;2023-02-03T07:06:24;98618.78;;;22.93;28.76
34370;BME280;20635;55.812;37.560;2023-02-03T07:08:54;98617.97;;;22.92;28.64
34370;BME280;20635;55.812;37.560;2023-02-03T07:11:21;98617.97;;;22.92;28.69
34370;BME280;20635;55.812;37.560;2023-02-03T07:13:47;98616.34;;;22.91;28.69
34370;BME280;20635;55.812;37.560;2023-02-03T07:16:12;98618.78;;;22.93;28.83
34370;BME280;20635;55.812;37.560;2023-02-03T07:18:38;98617.97;;;22.92;28.63
34370;BME280;20635;55.812;37.560;2023-02-03T07:21:06;98613.56;;;22.91;28.78
34370;BME280;20635;55.812;37.560;2023-02-03T07:23:32;98614.88;;;22.94;28.86
34370;BME280;20635;55.812;37.560;2023-02-03T07:25:59;98612.41;;;22.92;28.70
34370;BME280;20635;55.812;37.560;2023-02-03T07:28:25;98614.03;;;22.93;28.61
34370;BME280;20635;55.812;37.560;2023-02-03T07:30:51;98616.81;;;22.93;28.76
34370;BME280;20635;55.812;37.560;2023-02-03T07:33:19;98619.59;;;22.93;28.80
34370;BME280;20635;55.812;37.560;2023-02-03T07:35:55;98623.72;;;22.96;28.73
34370;BME280;20635;55.812;37.560;2023-02-03T07:38:22;98618.47;;;22.94;28.81
34370;BME280;20635;55.812;37.560;2023-02-03T07:40:48;98621.28;;;22.94;28.52
34370;BME280;20635;55.812;37.560;2023-02-03T07:43:14;98616.00;;;22.93;28.74
34370;BME280;20635;55.812;37.560;2023-02-03T07:45:41;98616.00;;;22.93;28.64
34370;BME280;20635;55.812;37.560;2023-02-03T07:48:06;98612.41;;;22.92;28.52
34370;BME280;20635;55.812;37.560;2023-02-03T07:50:32;98618.78;;;22.93;28.64
34370;BME280;20635;55.812;37.560;2023-02-03T07:52:59;98620.44;;;22.94;28.72
34370;BME280;20635;55.812;37.560;2023-02-03T07:55:26;98622.41;;;22.93;28.77
34370;BME280;20635;55.812;37.560;2023-02-03T07:57:53;98615.19;;;22.92;29.02
34370;BME280;20635;55.812;37.560;2023-02-03T08:00:19;98622.41;;;22.93;28.79
34370;BME280;20635;55.812;37.560;2023-02-03T08:02:45;98610.41;;;22.93;28.62
34370;BME280;20635;55.812;37.560;2023-02-03T08:05:12;98616.50;;;22.95;29.09
34370;BME280;20635;55.812;37.560;2023-02-03T08:07:39;98611.22;;;22.93;28.97
34370;BME280;20635;55.812;37.560;2023-02-03T08:10:06;98609.59;;;22.92;28.94
34370;BME280;20635;55.812;37.560;2023-02-03T08:12:32;98612.41;;;22.92;28.89
34370;BME280;20635;55.812;37.560;2023-02-03T08:14:59;98613.22;;;22.93;28.67
34370;BME280;20635;55.812;37.560;2023-02-03T08:17:25;98602.03;;;22.93;28.74
34370;BME280;20635;55.812;37.560;2023-02-03T08:19:51;98592.84;;;22.92;28.81
34370;BME280;20635;55.812;37.560;2023-02-03T08:22:16;98606.47;;;22.94;28.67
34370;BME280;20635;55.812;37.560;2023-02-03T08:24:44;98596.13;;;22.94;28.70
34370;BME280;20635;55.812;37.560;2023-02-03T08:27:12;98599.72;;;22.95;28.57
34370;BME280;20635;55.812;37.560;2023-02-03T08:29:38;98597.75;;;22.95;28.53
34370;BME280;20635;55.812;37.560;2023-02-03T08:32:06;98597.75;;;22.95;28.42
34370;BME280;20635;55.812;37.560;2023-02-03T08:34:33;98593.34;;;22.94;28.73
34370;BME280;20635;55.812;37.560;2023-02-03T08:36:59;98601.34;;;22.96;28.48
34370;BME280;20635;55.812;37.560;2023-02-03T08:39:25;98592.16;;;22.95;28.43
34370;BME280;20635;55.812;37.560;2023-02-03T08:41:51;98598.56;;;22.96;28.43
34370;BME280;20635;55.812;37.560;2023-02-03T08:44:17;98593.78;;;22.96;28.63
34370;BME280;20635;55.812;37.560;2023-02-03T08:46:48;98591.00;;;22.96;28.63
34370;BME280;20635;55.812;37.560;2023-02-03T08:49:14;98595.78;;;22.96;28.54
34370;BME280;20635;55.812;37.560;2023-02-03T08:51:40;98609.75;;;22.96;28.80
34370;BME280;20635;55.812;37.560;2023-02-03T08:54:06;98608.94;;;22.95;28.74
34370;BME280;20635;55.812;37.560;2023-02-03T08:56:32;98596.94;;;22.95;28.37
34370;BME280;20635;55.812;37.560;2023-02-03T08:58:59;98597.75;;;22.95;28.14
34370;BME280;20635;55.812;37.560;2023-02-03T09:01:25;98587.75;;;22.94;28.37
34370;BME280;20635;55.812;37.560;2023-02-03T09:03:50;98600.53;;;22.95;28.23
34370;BME280;20635;55.812;37.560;2023-02-03T09:06:16;98597.25;;;22.93;28.11
34370;BME280;20635;55.812;37.560;2023-02-03T09:08:43;98588.88;;;22.93;27.85
34370;BME280;20635;55.812;37.560;2023-02-03T09:11:15;98591.34;;;22.95;28.14
34370;BME280;20635;55.812;37.560;2023-02-03T09:13:42;98593.66;;;22.93;28.04
34370;BME280;20635;55.812;37.560;2023-02-03T09:16:12;98595.63;;;22.92;27.93
34370;BME280;20635;55.812;37.560;2023-02-03T09:18:38;98594.00;;;22.91;28.21
34370;BME280;20635;55.812;37.560;2023-02-03T09:21:06;98590.41;;;22.91;28.13
34370;BME280;20635;55.812;37.560;2023-02-03T09:23:33;98589.22;;;22.92;27.79
34370;BME280;20635;55.812;37.560;2023-02-03T09:26:06;98590.03;;;22.92;27.78
34370;BME280;20635;55.812;37.560;2023-02-03T09:28:33;98589.59;;;22.90;28.08
34370;BME280;20635;55.812;37.560;2023-02-03T09:31:01;98595.47;;;22.89;28.02
34370;BME280;20635;55.812;37.560;2023-02-03T09:33:27;98587.09;;;22.89;27.98
34370;BME280;20635;55.812;37.560;2023-02-03T09:35:55;98592.66;;;22.89;27.92
34370;BME280;20635;55.812;37.560;2023-02-03T09:38:21;98583.81;;;22.87;28.12
34370;BME280;20635;55.812;37.560;2023-02-03T09:43:55;98591.56;;;22.90;27.96
34370;BME280;20635;55.812;37.560;2023-02-03T09:46:31;98583.47;;;22.88;27.87
34370;BME280;20635;55.812;37.560;2023-02-03T09:49:03;98582.66;;;22.88;28.20
34370;BME280;20635;55.812;37.560;2023-02-03T09:51:36;98580.69;;;22.88;27.98
34370;BME280;20635;55.812;37.560;2023-02-03T09:54:32;98588.88;;;22.93;28.10
34370;BME280;20635;55.812;37.560;2023-02-03T09:57:05;98586.44;;;22.92;28.00
34370;BME280;20635;55.812;37.560;2023-02-03T09:59:36;98583.66;;;22.92;28.31
34370;BME280;20635;55.812;37.560;2023-02-03T10:07:30;98597.25;;;22.93;27.95
34370;BME280;20635;55.812;37.560;2023-02-03T10:12:49;98593.44;;;22.98;27.88
34370;BME280;20635;55.812;37.560;2023-02-03T10:15:59;98580.31;;;22.98;28.26
34370;BME280;20635;55.812;37.560;2023-02-03T10:18:32;98586.56;;;22.95;28.14
34370;BME280;20635;55.812;37.560;2023-02-03T10:21:24;98580.63;;;22.97;28.28
34370;BME280;20635;55.812;37.560;2023-02-03T10:23:55;98581.34;;;22.94;28.30
34370;BME280;20635;55.812;37.560;2023-02-03T10:26:25;98586.09;;;22.93;28.21
34370;BME280;20635;55.812;37.560;2023-02-03T10:28:56;98584.59;;;22.96;28.14
34370;BME280;20635;55.812;37.560;2023-02-03T10:31:25;98578.56;;;22.94;28.17
34370;BME280;20635;55.812;37.560;2023-02-03T10:34:10;98580.63;;;22.97;28.41
34370;BME280;20635;55.812;37.560;2023-02-03T10:36:52;98574.72;;;22.98;28.32
34370;BME280;20635;55.812;37.560;2023-02-03T10:41:48;98576.69;;;22.98;28.15
34370;BME280;20635;55.812;37.560;2023-02-03T10:44:14;98569.13;;;22.98;28.22
34370;BME280;20635;55.812;37.560;2023-02-03T10:46:41;98579.47;;;22.98;28.32
34370;BME280;20635;55.812;37.560;2023-02-03T10:49:09;98573.06;;;22.97;28.04
34370;BME280;20635;55.812;37.560;2023-02-03T10:51:40;98563.56;;;22.98;28.10
34370;BME280;20635;55.812;37.560;2023-02-03T10:54:32;98571.22;;;23.01;28.02
34370;BME280;20635;55.812;37.560;2023-02-03T10:57:05;98567.97;;;22.99;27.66
34370;BME280;20635;55.812;37.560;2023-02-03T10:59:36;98567.47;;;22.97;27.84
34370;BME280;20635;55.812;37.560;2023-02-03T11:02:10;98562.72;;;22.98;27.96
34370;BME280;20635;55.812;37.560;2023-02-03T11:04:45;98564.22;;;22.95;27.85
34370;BME280;20635;55.812;37.560;2023-02-03T11:07:23;98569.94;;;22.99;27.84
34370;BME280;20635;55.812;37.560;2023-02-03T11:09:49;98555.34;;;22.93;27.76
34370;BME280;20635;55.812;37.560;2023-02-03T11:12:17;98564.22;;;22.95;27.63
34370;BME280;20635;55.812;37.560;2023-02-03T11:14:48;98559.44;;;22.96;27.80
34370;BME280;20635;55.812;37.560;2023-02-03T11:17:17;98556.66;;;22.96;27.81
34370;BME280;20635;55.812;37.560;2023-02-03T11:19:47;98556.66;;;22.96;27.91
34370;BME280;20635;55.812;37.560;2023-02-03T11:22:29;98554.00;;;22.99;28.00
34370;BME280;20635;55.812;37.560;2023-02-03T11:24:56;98559.72;;;23.03;27.84
34370;BME280;20635;55.812;37.560;2023-02-03T11:27:23;98553.19;;;22.99;27.67
34370;BME280;20635;55.812;37.560;2023-02-03T11:32:39;98559.59;;;22.99;27.68
34370;BME280;20635;55.812;37.560;2023-02-03T11:37:43;98558.63;;;22.95;28.02
34370;BME280;20635;55.812;37.560;2023-02-03T11:42:38;98553.41;;;22.94;27.80
34370;BME280;20635;55.812;37.560;2023-02-03T11:47:48;98552.56;;;22.93;27.99
34370;BME280;20635;55.812;37.560;2023-02-03T11:56:08;98548.75;;;22.98;27.58
34370;BME280;20635;55.812;37.560;2023-02-03T11:58:59;98548.28;;;22.96;27.88
34370;BME280;20635;55.812;37.560;2023-02-03T12:01:51;98549.22;;;23.00;27.81
34370;BME280;20635;55.812;37.560;2023-02-03T12:06:59;98544.31;;;22.97;27.71
34370;BME280;20635;55.812;37.560;2023-02-03T12:12:40;98545.63;;;22.99;27.76
34370;BME280;20635;55.812;37.560;2023-02-03T12:20:29;98549.22;;;23.00;27.50
34370;BME280;20635;55.812;37.560;2023-02-03T12:23:16;98536.75;;;22.97;27.27
34370;BME280;20635;55.812;37.560;2023-02-03T12:26:01;98543.63;;;23.00;27.71
34370;BME280;20635;55.812;37.560;2023-02-03T12:31:14;98532.81;;;22.98;27.46
34370;BME280;20635;55.812;37.560;2023-02-03T12:33:49;98539.22;;;22.99;27.51
34370;BME280;20635;55.812;37.560;2023-02-03T12:36:23;98532.47;;;23.00;27.66
34370;BME280;20635;55.812;37.560;2023-02-03T12:39:04;98539.69;;;23.01;27.58
34370;BME280;20635;55.812;37.560;2023-02-03T12:41:35;98533.63;;;22.99;27.22
34370;BME280;20635;55.812;37.560;2023-02-03T12:44:22;98537.69;;;23.01;27.51
34370;BME280;20635;55.812;37.560;2023-02-03T12:50:04;98537.25;;;22.99;27.16
34370;BME280;20635;55.812;37.560;2023-02-03T12:52:39;98539.09;;;22.95;27.52
34370;BME280;20635;55.812;37.560;2023-02-03T13:00:45;98529.59;;;22.88;27.23
34370;BME280;20635;55.812;37.560;2023-02-03T13:03:38;98532.53;;;22.91;27.28
34370;BME280;20635;55.812;37.560;2023-02-03T13:06:26;98534.34;;;22.87;27.29
34370;BME280;20635;55.812;37.560;2023-02-03T13:09:27;98536.69;;;22.85;27.36
34370;BME280;20635;55.812;37.560;2023-02-03T13:12:34;98532.13;;;22.81;27.00
34370;BME280;20635;55.812;37.560;2023-02-03T13:15:39;98530.69;;;22.74;27.12
34370;BME280;20635;55.812;37.560;2023-02-03T13:18:24;98537.78;;;22.72;27.28
34370;BME280;20635;55.812;37.560;2023-02-03T13:20:53;98535.06;;;22.63;27.25
34370;BME280;20635;55.812;37.560;2023-02-03T13:23:19;98537.72;;;22.60;27.08
34370;BME280;20635;55.812;37.560;2023-02-03T13:31:14;98534.25;;;22.42;27.24
34370;BME280;20635;55.812;37.560;2023-02-03T13:44:50;98536.84;;;22.26;27.66
34370;BME280;20635;55.812;37.560;2023-02-03T13:47:23;98536.34;;;22.24;27.61
34370;BME280;20635;55.812;37.560;2023-02-03T13:50:20;98546.03;;;22.26;27.97
34370;BME280;20635;55.812;37.560;2023-02-03T13:52:54;98543.56;;;22.25;27.60
34370;BME280;20635;55.812;37.560;2023-02-03T13:55:39;98543.25;;;22.26;27.73
34370;BME280;20635;55.812;37.560;2023-02-03T13:58:19;98535.06;;;22.21;27.59
34370;BME280;20635;55.812;37.560;2023-02-03T14:04:01;98540.00;;;22.16;27.86
34370;BME280;20635;55.812;37.560;2023-02-03T14:06:02;98545.59;;;22.16;27.98
34370;BME280;20635;55.812;37.560;2023-02-03T14:19:01;98542.13;;;22.19;28.17
34370;BME280;20635;55.812;37.560;2023-02-03T14:21:37;98550.16;;;22.20;28.28
34370;BME280;20635;55.812;37.560;2023-02-03T14:24:08;98542.94;;;22.19;28.20
34370;BME280;20635;55.812;37.560;2023-02-03T14:26:41;98539.34;;;22.19;28.49
34370;BME280;20635;55.812;37.560;2023-02-03T14:29:31;98550.97;;;22.21;28.62
34370;BME280;20635;55.812;37.560;2023-02-03T14:32:03;98536.09;;;22.17;28.68
34370;BME280;20635;55.812;37.560;2023-02-03T14:34:38;98547.25;;;22.17;28.56
34370;BME280;20635;55.812;37.560;2023-02-03T14:37:26;98541.31;;;22.18;28.53
34370;BME280;20635;55.812;37.560;2023-02-03T14:40:18;98544.13;;;22.18;28.63
34370;BME280;20635;55.812;37.560;2023-02-03T14:57:00;98551.66;;;22.18;28.98
34370;BME280;20635;55.812;37.560;2023-02-03T14:59:49;98549.91;;;22.13;28.94
34370;BME280;20635;55.812;37.560;2023-02-03T15:02:21;98548.25;;;22.12;28.85
34370;BME280;20635;55.812;37.560;2023-02-03T15:04:51;98550.22;;;22.12;28.79
34370;BME280;20635;55.812;37.560;2023-02-03T15:07:40;98551.16;;;22.16;28.87
34370;BME280;20635;55.812;37.560;2023-02-03T15:12:51;98551.06;;;22.12;29.12